Downloads

-JavaCPC -demo -emu -j-cpc_ani -tools 0-9 A B C D E F G H I J K L M N O P Q R S T U V W X Y Z ZZZ_UNK roms
FILEDATESIZEDLs
KTris by Richard Wilson (PD).zip 2017-04-21 16:14 2 Kb85
Kaiser (G) (19xx).zip 2017-04-21 16:13 91 Kb96
Kane & Nebulus & Renaud - Marche a l'Ombre.zip 2017-04-21 16:13 95 Kb48
Kane (UK) (1986).zip 2017-04-21 16:13 28 Kb75
Kane (UK) (1986) [a1].zip 2017-04-21 16:13 80 Kb86
Kane (UK) (1986) [a2].zip 2017-04-21 16:13 38 Kb75
Kane (UK) (1986) [t1].zip 2017-04-21 16:13 38 Kb83
Karateka (F) (1986).zip 2017-04-21 16:13 50 Kb84
Karateka (F) (1986) [f1].zip 2017-04-21 16:13 50 Kb83
Karateka (F) (1986) [t1].zip 2017-04-21 16:13 50 Kb80
Karateka (F) (1990).zip 2017-04-21 16:13 49 Kb81
Karateka (F) (1990) [t1].zip 2017-04-21 16:13 49 Kb80
Karateka (F).dsk 2017-04-21 16:13 192 Kb90
Karl's Treasure Hunt (UK) (1984).zip 2017-04-21 16:13 11 Kb80
Karl's Treasure Hunt (UK) (1984) [a1].zip 2017-04-21 16:13 84 Kb79
Karl's Treasure Hunt (UK) (1984) [a2].zip 2017-04-21 16:13 11 Kb77
Karnov (E) - Disk 1A.dsk 2017-04-21 16:13 214 Kb82
Karnov (E) - Disk 1B.dsk 2017-04-21 16:13 214 Kb79
Karnov (UK) (1988) (Disk 1 of 2).zip 2017-04-21 16:13 73 Kb77
Karnov (UK) (1988) (Disk 1 of 2) [a1].zip 2017-04-21 16:13 56 Kb66
Karnov (UK) (1988) (Disk 1 of 2) [t1].zip 2017-04-21 16:13 159 Kb86
Karnov (UK) (1988) (Disk 1 of 2) [t2].zip 2017-04-21 16:13 73 Kb69
Karnov (UK) (1988) (Disk 2 of 2).zip 2017-04-21 16:13 62 Kb75
Karnov (UK) (1988) (Disk 2 of 2) [a1].zip 2017-04-21 16:13 105 Kb78
Karnov (UK) (1988) (Disk 2 of 2) [t2].zip 2017-04-21 16:13 62 Kb77
Kat Trap (E).dsk 2017-04-21 16:13 91 Kb83
Kat Trap (UK) (1987).zip 2017-04-21 16:13 34 Kb80
Keep Yourself Alive (F) (1987).zip 2017-04-21 16:13 19 Kb83
Kenny Dalglish Soccer Manager (E).cdt 2017-04-21 16:13 57 Kb97
Kenny Dalglish Soccer Manager (UK) (1989).zip 2017-04-21 16:13 25 Kb76
Kenny Dalglish Soccer Match (UK) (1990).zip 2017-04-21 16:13 29 Kb75
Kentilla (UK) (1985).zip 2017-04-21 16:13 23 Kb82
Kentilla (UK) (1985) [a1].zip 2017-04-21 16:13 30 Kb80
Kentucky Racing (E).cdt 2017-04-21 16:13 45 Kb91
Kentucky Racing (UK) (1990).zip 2017-04-21 16:13 24 Kb74
Kentucky Racing (UK) (1990) [f1].zip 2017-04-21 16:13 24 Kb81
Kessia (F) (19xx).zip 2017-04-21 16:13 72 Kb75
Kettle (E).dsk 2017-04-21 16:13 193 Kb80
Kettle (UK) (1986).zip 2017-04-21 16:13 21 Kb84
Kevin Thacker's CPC Guide (UK) (19xx) (PD) (Disk 1 of 2).zip 2017-04-21 16:13 47 Kb69
Kevin Thacker's CPC Guide (UK) (19xx) (PD) (Disk 2 of 2).zip 2017-04-21 16:13 41 Kb75
Key Factor, The (UK) (1985).zip 2017-04-21 16:13 13 Kb84
Kick Off (UK,F,G,S,I) (1990).zip 2017-04-21 16:13 27 Kb77
Kick Off (UK,F,G,S,I) (1990) [a1].zip 2017-04-21 16:13 131 Kb73
Kick Off (UK,F,G,S,I) (1990) [a2].zip 2017-04-21 16:13 31 Kb69
Kick Off 2 (E) - Disk 1A.dsk 2017-04-21 16:13 178 Kb85
Kick Off 2 (E) - Disk 1B.dsk 2017-04-21 16:13 178 Kb85
Kick Off 2 (F) (1990).zip 2017-04-21 16:13 68 Kb77
Kick Off 2 (F) (1990) [a1].zip 2017-04-21 16:13 68 Kb82
Kikstart II (UK) (1988).zip 2017-04-21 16:13 24 Kb82
Kikstart II (UK) (1988) [a1].zip 2017-04-21 16:13 23 Kb83
Killapede (UK) (1986).zip 2017-04-21 16:13 26 Kb78
Killapede (UK) (1986) [a1].zip 2017-04-21 16:13 26 Kb81
Killapede (UK) (1986) [a2].zip 2017-04-21 16:13 32 Kb83
Killapede (UK) (1986) [a3].zip 2017-04-21 16:13 30 Kb78
Killed Until Dead (UK) (1987) (Disk 1 of 2).zip 2017-04-21 16:13 50 Kb74
Killed Until Dead (UK) (1987) (Disk 2 of 2).zip 2017-04-21 16:13 62 Kb72
Killer Ball (UK) (1991).zip 2017-04-21 16:14 103 Kb77
Killer Ball (UK) (1991) [a1].zip 2017-04-21 16:13 103 Kb78
Killer Ball (UK) (1991) [a2].zip 2017-04-21 16:13 76 Kb79
Killer Ball (UK) (1991) [a3].zip 2017-04-21 16:13 96 Kb71
Killer Cobra (E).cdt 2017-04-21 16:14 49 Kb81
Killer Cobra (UK) (1987).zip 2017-04-21 16:14 27 Kb75
Killer Cobra (UK) (1987) [a1].zip 2017-04-21 16:14 27 Kb81
Killer Cobra (UK) (1987) [a2].zip 2017-04-21 16:14 31 Kb77
Killer Gorilla & Knight Lore & Laserwarp & Molecule Man & Zaxx (F).zip 2017-04-21 16:14 82 Kb51
Killer Gorilla (UK) (1984).zip 2017-04-21 16:14 19 Kb80
Killer Gorilla (UK) (1984) [a1].zip 2017-04-21 16:14 19 Kb86
Killer Gorilla (UK) (1984) [a2].zip 2017-04-21 16:14 15 Kb86
Killer Gorilla (UK) (1984) [a3].zip 2017-04-21 16:14 18 Kb77
Killer Gorilla (UK) (1984) [b1].zip 2017-04-21 16:14 19 Kb81
Killer Gorilla (UK) (1984) [b2].zip 2017-04-21 16:14 19 Kb82
Killer Ring (UK) (1987).zip 2017-04-21 16:14 16 Kb88
Killer Ring (UK) (1987) [a1].zip 2017-04-21 16:14 16 Kb85
Kiloroid (UK) (19xx).zip 2017-04-21 16:14 2 Kb78
Kim (F) (1986).zip 2017-04-21 16:14 9 Kb77
Kinetic (UK) (1987).zip 2017-04-21 16:14 35 Kb80
Kinetic (UK) (1987) [a1].zip 2017-04-21 16:14 36 Kb77
Kinetic (UK) (1987) [a2].zip 2017-04-21 16:14 35 Kb86
Kinetik (E).dsk 2017-04-21 16:14 195 Kb92
Kingdom of Hamil (UK) (1987).zip 2017-04-21 16:14 57 Kb79
Kingdoms (UK) (1985).zip 2017-04-21 16:14 5 Kb80
Kit de Telechargement - Telecharge Amstrad CPC (F).dsk 2017-04-21 16:14 217 Kb87
Kit de Telechargement pour Amstrad CPC (F).dsk 2017-04-21 16:14 191 Kb99
Klax & Meynaumede (F) & Nervous Break Down (F) & Skweek.zip 2017-04-21 16:14 97 Kb52
Klax (E).dsk 2017-04-21 16:14 172 Kb82
Klax (UK) (1990) (CPM).zip 2017-04-21 16:14 44 Kb76
Klax (UK) (1990) (CPM) [a1].zip 2017-04-21 16:14 44 Kb84
Klax (UK) (1990) (CPM Version).zip 2017-04-21 16:14 43 Kb77
Klax (UK) (1990) (CPM Version) [a1].zip 2017-04-21 16:14 43 Kb77
Klax (UK) (1990) (Cart).zip 2017-04-21 16:14 41 Kb80
Klax (UK) (1990).zip 2017-04-21 16:14 42 Kb74
Klax (UK) (1990) [a1].zip 2017-04-21 16:14 42 Kb84
Klax (UK) (1990) [h1].zip 2017-04-21 16:14 52 Kb79
Klax (UK) (1990) [h2].zip 2017-04-21 16:14 54 Kb84
Knaves and thou Prisoners (UK) (19xx).zip 2017-04-21 16:14 8 Kb75
Knight Force (F) (1989) (Disk 1 of 2).zip 2017-04-21 16:14 54 Kb77
Knight Force (F) (1989) (Disk 1 of 2) [t1].zip 2017-04-21 16:14 55 Kb72
Knight Force (F) (1989) (Disk 1 of 2) [t2] & Power Drift.zip 2017-04-21 16:14 108 Kb45
Knight Force (F) (1989) (Disk 1 of 2) [t2].zip 2017-04-21 16:14 75 Kb73
Knight Force (F) (1989) (Disk 2 of 2).zip 2017-04-21 16:14 76 Kb77
Knight Force (F) - Disk 1A.dsk 2017-04-21 16:14 456 Kb83
Knight Force (F) - Disk 1B.dsk 2017-04-21 16:14 627 Kb86
Knight Games (E) - Side A.cdt 2017-04-21 16:14 166 Kb89
Knight Games (E) - Side B.cdt 2017-04-21 16:14 142 Kb77
Knight Games (UK) (1986) (Disk 1 of 2).zip 2017-04-21 16:14 88 Kb79
Knight Games (UK) (1986) (Disk 1 of 2) [a1].zip 2017-04-21 16:14 83 Kb70
Knight Games (UK) (1986) (Disk 1 of 2) [a2].zip 2017-04-21 16:14 83 Kb74
Knight Games (UK) (1986) (Disk 1 of 2) [a3].zip 2017-04-21 16:14 103 Kb68
Knight Games (UK) (1986) (Disk 2 of 2).zip 2017-04-21 16:14 94 Kb78
Knight Games (UK) (1986) (Disk 2 of 2) [a1].zip 2017-04-21 16:14 76 Kb70
Knight Games (UK) (1986) (Disk 2 of 2) [a2].zip 2017-04-21 16:14 79 Kb69
Knight Games (UK) (1986) (Disk 2 of 2) [a3].zip 2017-04-21 16:14 109 Kb73
Knight Games (UK) (1986) [f1][t1].zip 2017-04-21 16:14 179 Kb74
Knight Lore (E).cdt 2017-04-21 16:14 42 Kb79
Knight Lore (UK) (1984).zip 2017-04-21 16:14 25 Kb82
Knight Lore (UK) (1984) [a1].zip 2017-04-21 16:14 25 Kb77
Knight Lore (UK) (1984) [a2].zip 2017-04-21 16:14 25 Kb83
Knight Moves (F) (19xx) (Disk 1 of 2).zip 2017-04-21 16:14 60 Kb79
Knight Moves (F) (19xx) (Disk 2 of 2).zip 2017-04-21 16:14 83 Kb76
Knight Orc (E) - Disk 1A.dsk 2017-04-21 16:14 194 Kb82
Knight Orc (E) - Disk 1B.dsk 2017-04-21 16:14 199 Kb85
Knight Orc (UK) (1987) (Disk 1 of 2).zip 2017-04-21 16:14 119 Kb80
Knight Orc (UK) (1987) (Disk 2 of 2).zip 2017-04-21 16:14 110 Kb77
Knight Rider (E).cdt 2017-04-21 16:14 45 Kb85
Knight Rider (UK) (1986).zip 2017-04-21 16:14 20 Kb72
Knight Rider (UK) (1986) [h1].zip 2017-04-21 16:14 32 Kb80
Knight Rider (UK) (1986) [h2].zip 2017-04-21 16:14 21 Kb76
Knight Tyme (E).cdt 2017-04-21 16:14 57 Kb85
Knight Tyme (UK) (1986).zip 2017-04-21 16:14 31 Kb84
Knight Tyme (UK) (1986) [a1].zip 2017-04-21 16:14 31 Kb79
Knight Tyme (UK) (1986) [t1].zip 2017-04-21 16:14 31 Kb71
Knightmare (E).dsk 2017-04-21 16:14 213 Kb88
Knightmare (UK) (1987).zip 2017-04-21 16:14 29 Kb79
Knightmare (UK) (1987) [a1].zip 2017-04-21 16:14 30 Kb74
Knightmare (UK) (1987) [a2].zip 2017-04-21 16:14 30 Kb81
Knightmare (UK) (1987) [t1].zip 2017-04-21 16:14 33 Kb79
Know (G).dsk 2017-04-21 16:14 192 Kb95
Kobayashi Naru (UK) (19xx).zip 2017-04-21 16:14 31 Kb80
Kobayashi Naru (UK) (1987).zip 2017-04-21 16:14 31 Kb78
Kobayashi Naru (UK) (1987) [a1].zip 2017-04-21 16:14 31 Kb79
Kobayashi Naru (UK) (1987) [a2].zip 2017-04-21 16:14 48 Kb83
Kokotoni Wilf (UK) (19xx).zip 2017-04-21 16:14 137 Kb83
Kokotoni Wilf (UK) (19xx) [a1].zip 2017-04-21 16:14 35 Kb77
Kokotoni Wilf (UK) (19xx) [f1][t1].zip 2017-04-21 16:14 37 Kb72
Konami's Golf (UK) (1986).zip 2017-04-21 16:14 24 Kb75
Konami's Golf (UK) (1986) [a1].zip 2017-04-21 16:14 24 Kb75
Konami's Golf (UK) (1986) [a2].zip 2017-04-21 16:14 26 Kb78
Konami Coin-op Hits (UK) (19xx) (Disk 1 of 2).zip 2017-04-21 16:14 50 Kb73
Konami Coin-op Hits (UK) (19xx) (Disk 1 of 2) [a1].zip 2017-04-21 16:14 50 Kb69
Konami Coin-op Hits (UK) (19xx) (Disk 2 of 2).zip 2017-04-21 16:14 65 Kb73
Konami Coin-op Hits (UK) (19xx) (Disk 2 of 2) [a1].zip 2017-04-21 16:14 65 Kb75
Konami Coin-op Hits (UK) (19xx) (Disk 2 of 2) [a2].zip 2017-04-21 16:14 65 Kb74
Kong Strikes Back (UK) (1985).zip 2017-04-21 16:14 21 Kb85
Kong Strikes Back (UK) (1985) [a1].zip 2017-04-21 16:14 21 Kb78
Kong Strikes Back (UK) (1985) [a2].zip 2017-04-21 16:14 23 Kb77
Koronis Rift (E).dsk 2017-04-21 16:14 186 Kb87
Koronis Rift (UK) (1987).zip 2017-04-21 16:14 57 Kb81
Krakout (E).cdt 2017-04-21 16:14 64 Kb91
Krakout (E).dsk 2017-04-21 16:14 171 Kb85
Krakout (UK) (1987).zip 2017-04-21 16:14 31 Kb81
Krakout (UK) (1987) [h1].zip 2017-04-21 16:14 34 Kb76
Kristal (F).dsk 2017-04-21 16:14 191 Kb84
Kristal (UK) (1985).zip 2017-04-21 16:14 16 Kb82
Kristax (UK) (1989).zip 2017-04-21 16:14 9 Kb77
Krypton Factor (UK) (1987) (Disk 1 of 2).zip 2017-04-21 16:14 52 Kb72
Krypton Factor (UK) (1987) (Disk 1 of 2) [a1].zip 2017-04-21 16:14 47 Kb82
Krypton Factor (UK) (1987) (Disk 2 of 2).zip 2017-04-21 16:14 5 Kb74
Krypton Factor (UK) (1987) (Disk 2 of 2) [a1].zip 2017-04-21 16:14 21 Kb72
Kung-Fu (UK) (1986).zip 2017-04-21 16:14 19 Kb80
Kung-Fu Master (E).dsk 2017-04-21 16:14 191 Kb79
Kung-Fu Master (UK) (1986).zip 2017-04-21 16:14 28 Kb77
Kung-Fu Master (UK) (1986) [h1].zip 2017-04-21 16:14 22 Kb78
Kwah (UK) (1987).zip 2017-04-21 16:14 36 Kb71
Kwik Snax (E).cdt 2017-04-21 16:14 65 Kb94
Kwik Snax (UK) (1990).zip 2017-04-21 16:14 22 Kb74
Kwik Snax (UK) (1990) [f1].zip 2017-04-21 16:14 33 Kb81
Kwik Snax (UK) (1990) [h1].zip 2017-04-21 16:14 41 Kb81
Kwik Snax (UK) (1990) [t1].zip 2017-04-21 16:14 33 Kb75
kobayashi Naru (E).cdt 2017-04-21 16:14 74 Kb83
180 Files
-JavaCPC -demo -emu -j-cpc_ani -tools 0-9 A B C D E F G H I J K L M N O P Q R S T U V W X Y Z ZZZ_UNK roms